• Join FlightAware (Why Join?)
  • Login
  • US Flag 
08:53PM EDT


 

Airport Tracker/Info


-or-


 

Live Flight TrackerFlight Track Log ✈ GJS3657 ✈ 31-Jul-2013 ✈ KORD - KPWM

Flight Track Log - Related Links

Times and Time Zones

All times are in EDT time to prevent confusion due to time zone crossing. See the GJS3657 flight status page for this flight to view local times or setup timezone preferences in your user account.

Time Position Orientation Groundspeed Altitude Reporting Facility
EDT Latitude Longitude Course Direction KTS MPH feet Rate Location/Type
02:33AM 41.9833 -87.9833 77° East 193 222 3,300  Level Chicago TRACON
02:34AM 42.0333 -88.0000 346° North 255 293 4,900 780 Climbing Chicago TRACON
02:35AM 42.1167 -88.0000 360° North 260 299 4,900 1,320 Level Chicago TRACON
02:36AM 42.1861 -87.9956 North 257 296 7,700 2,580 Climbing Chicago Center
02:37AM 42.2619 -87.9883 North 270 311 10,400 2,100 Climbing Chicago Center
02:38AM 42.1466 -86.9419 77° East  Level Estimated
02:38AM 42.3469 -87.9769 North 302 348 11,900  Level Chicago Center
02:39AM 42.4319 -87.9094 30° Northeast 348 400 14,000 1,620 Climbing Chicago Center
02:40AM 42.4664 -87.7650 72° East 411 473 15,200 1,500 Climbing Chicago Center
02:41AM 42.4794 -87.6097 83° East 419 482 17,000 1,500 Climbing Chicago Center
02:42AM 42.4903 -87.4461 85° East 433 498 18,200 1,140 Climbing Chicago Center
02:43AM 42.5028 -87.3008 83° East 453 521 19,300 1,200 Climbing Chicago Center
02:44AM 42.5167 -87.1272 84° East 465 535 20,700 1,500 Climbing Chicago Center
02:45AM 42.5328 -86.9156 84° East 470 541 22,400 1,440 Climbing Chicago Center
02:46AM 42.5456 -86.7375 84° East 476 548 23,700 1,140 Climbing Chicago Center
02:47AM 42.5575 -86.5581 85° East 481 554 24,800 900 Climbing Chicago Center
02:48AM 42.5714 -86.3747 84° East 490 564 25,600 780 Climbing Chicago Center
02:49AM 42.5836 -86.1864 85° East 503 579 26,400 900 Climbing Chicago Center
02:50AM 42.5958 -85.9975 85° East 508 585 27,400 1,080 Climbing Chicago Center
02:51AM 42.6078 -85.8089 85° East 509 586 28,600 1,080 Climbing Chicago Center
02:52AM 42.6203 -85.6214 85° East 505 581 29,600 840 Climbing Chicago Center
02:53AM 42.6322 -85.4311 85° East 510 587 30,400 840 Climbing Chicago Center
02:54AM 42.6436 -85.2397 85° East 512 589 31,300 900 Climbing Chicago Center
02:55AM 42.6567 -85.0497 85° East 509 586 32,200 720 Climbing Chicago Center
02:56AM 42.6672 -84.8586 86° East 511 588 32,800 540 Climbing Chicago Center
02:57AM 42.6781 -84.6647 86° East 516 594 33,300 540 Climbing Chicago Center
02:58AM 42.6889 -84.4692 86° East 520 598 34,000 600 Climbing Chicago Center
02:59AM 42.6981 -84.2742 86° East 520 598 34,600 600 Climbing Chicago Center
03:00AM 42.7086 -84.0803 86° East 517 595 35,200 540 Climbing Chicago Center
03:01AM 42.7172 -83.8853 86° East 519 597 35,700 480 Climbing Chicago Center
03:02AM 42.7267 -83.6883 86° East 523 602 36,200 480 Climbing Chicago Center
03:03AM 42.7361 -83.4925 86° East 522 601 36,700 360 Climbing Chicago Center
03:04AM 42.7442 -83.2986 87° East 516 594 37,000 180 Climbing Chicago Center
03:04AM 42.7500 -83.1500 87° East 520 598 37,000  Level Toronto Center
03:05AM 42.7503 -83.0686 90° East 513 590 37,000  Level Cleveland Center
03:06AM 42.7583 -82.8767 87° East 513 590 37,000  Level Cleveland Center
03:07AM 42.7664 -82.6789 87° East 513 590 37,000  Level Cleveland Center
03:08AM 42.7717 -82.4839 88° East 513 590 37,000  Level Cleveland Center
03:09AM 42.7789 -82.2917 87° East 513 590 37,000  Level Cleveland Center
03:10AM 42.7858 -82.1025 87° East 508 585 37,000  Level Cleveland Center
03:11AM 42.7903 -81.9128 88° East 508 585 37,000  Level Cleveland Center
03:12AM 42.7986 -81.7036 87° East 496 571 37,000  Level Cleveland Center
03:13AM 42.8042 -81.5369 87° East 496 571 37,000  Level Cleveland Center
03:14AM 42.8078 -81.3417 88° East 496 571 37,000 480 Level Cleveland Center
03:15AM 42.8131 -81.1550 88° East 496 571 38,000 900 Climbing Cleveland Center
03:16AM 42.8200 -80.9767 87° East 483 556 38,800 480 Climbing Cleveland Center
03:17AM 42.8353 -80.8011 83° East 474 545 39,000 60 Climbing Cleveland Center
03:18AM 42.8436 -80.5972 87° East 479 551 39,000  Level Cleveland Center
03:19AM 42.8456 -80.4161 89° East 479 551 39,000  Level Cleveland Center
03:20AM 42.8472 -80.2292 89° East 479 551 39,000  Level Cleveland Center
03:21AM 42.8486 -80.0394 89° East 485 558 39,000  Level Cleveland Center
03:22AM 42.8561 -79.8525 87° East 490 564 39,000  Level Cleveland Center
03:23AM 42.8589 -79.6628 89° East 495 570 39,000  Level Cleveland Center
03:24AM 42.8614 -79.4728 89° East 495 570 39,000  Level Cleveland Center
03:25AM 42.8578 -79.3228 92° East 495 570 39,000  Level Cleveland Center
03:26AM 42.8572 -79.1133 90° East 495 570 39,000  Level Cleveland Center
03:27AM 42.8569 -78.9236 90° East 495 570 39,000  Level Cleveland Center
03:28AM 42.8581 -78.7253 89° East 500 575 39,000  Level Cleveland Center
03:29AM 42.8567 -78.5297 90° East 506 582 39,000  Level Cleveland Center
03:30AM 42.8572 -78.3317 90° East 516 594 39,000  Level Cleveland Center
03:31AM 42.8553 -78.1333 91° East 516 594 39,000  Level Cleveland Center
03:32AM 42.8553 -77.9408 90° East 516 594 39,000  Level Cleveland Center
03:33AM 42.8547 -77.7453 90° East 516 594 39,000  Level Cleveland Center
03:34AM 42.8519 -77.5528 91° East 516 594 39,000  Level Cleveland Center
03:35AM 42.8489 -77.3603 91° East 511 588 39,000  Level Cleveland Center
03:36AM 42.8456 -77.1708 91° East 511 588 39,000  Level Cleveland Center
03:37AM 42.8411 -76.9856 92° East 500 575 39,000  Level Boston Center
03:38AM 42.8386 -76.7814 91° East 495 570 39,000  Level Boston Center
03:39AM 42.8358 -76.6339 91° East 495 570 39,000  Level Boston Center
03:40AM 42.8331 -76.4214 91° East 500 575 39,000  Level Boston Center
03:41AM 42.8269 -76.2311 92° East 505 581 39,000  Level Boston Center
03:42AM 42.8228 -76.0411 92° East 505 581 39,000  Level Boston Center
03:43AM 42.8183 -75.8511 92° East 505 581 39,000  Level Boston Center
03:44AM 42.8097 -75.6383 93° East 507 583 39,000  Level Boston Center
03:45AM 42.8044 -75.4486 92° East 507 583 39,000  Level Boston Center
03:46AM 42.7989 -75.2586 92° East 507 583 39,000  Level Boston Center
03:47AM 42.7953 -75.0658 91° East 507 583 39,000  Level Boston Center
03:48AM 42.7869 -74.8817 93° East 502 578 39,000  Level Boston Center
03:49AM 42.7803 -74.6919 93° East 502 578 39,000  Level Boston Center
03:50AM 42.7756 -74.5050 92° East 496 571 39,000  Level Boston Center
03:51AM 42.7664 -74.3208 94° East 496 571 39,000  Level Boston Center
03:52AM 42.7589 -74.1283 93° East 502 578 39,000 -120 Level Boston Center
03:53AM 42.7553 -73.9331 91° East 507 583 38,800 -840 Descending Boston Center
03:54AM 42.7950 -73.7586 73° East 492 566 37,400 -1,560 Descending Boston Center
03:55AM 42.8383 -73.6150 68° East 463 533 35,700 -2,040 Descending Boston Center
03:56AM 42.8817 -73.4347 72° East 452 520 33,400 -2,040 Descending Boston Center
03:57AM 42.9267 -73.2878 67° East 458 527 31,700 -1,920 Descending Boston Center
03:58AM 42.9714 -73.1211 70° East 463 533 29,600 -2,280 Descending Boston Center
03:59AM 43.0161 -72.9342 72° East 468 539 27,200 -2,280 Descending Boston Center
04:00AM 43.0586 -72.7697 70° East 463 533 25,100 -2,040 Descending Boston Center
04:01AM 43.1067 -72.5994 69° East 463 533 23,200 -1,800 Descending Boston Center
04:02AM 43.1422 -72.4486 72° East 469 540 21,600 -1,620 Descending Boston Center
04:03AM 43.1839 -72.2836 71° East 459 528 20,000 -1,680 Descending Boston Center
04:04AM 43.2253 -72.1125 72° East 438 504 18,200 -1,560 Descending Boston Center
04:05AM 43.2603 -71.9725 71° East 433 498 17,000 -1,440 Descending Boston Center
04:06AM 43.3031 -71.8011 71° East 428 493 15,500 -1,380 Descending Boston Center
04:07AM 43.3356 -71.6664 72° East 428 493 14,300 -1,320 Descending Boston Center
04:08AM 43.3761 -71.5061 71° East 412 474 12,900 -1,320 Descending Boston Center
04:09AM 43.4064 -71.3828 71° East 391 450 11,700 -1,080 Descending Boston Center
04:10AM 43.4550 -71.2531 63° Northeast 364 419 10,700 -1,020 Descending Boston Center
04:11AM 43.4997 -71.1550 58° Northeast 312 359 9,800 -1,320 Descending Boston Center
04:12AM 43.5383 -71.0683 58° Northeast 274 315 8,200 -1,680 Descending Boston Center
04:13AM 43.5789 -70.9814 57° Northeast 269 310 6,400 -1,620 Descending Boston Center
04:14AM 43.6217 -70.9028 53° Northeast 259 298 5,100 -1,200 Descending Boston Center
04:15AM 43.6561 -70.8272 58° Northeast 259 298 4,100 -660 Descending Boston Center
04:16AM 43.6714 -70.7350 77° East 238 274 3,800 -300 Descending Boston Center
04:17AM 43.6681 -70.6578 93° East 215 247 3,500 -780 Descending Boston Center
04:18AM 43.6625 -70.5658 95° East 215 247 2,300 -840 Descending Boston Center
04:19AM 43.6572 -70.5000 96° East 208 239 1,900 -420 Descending Boston Center
04:20AM 43.6519 -70.4258 96° East 187 215 1,500 -600 Descending Boston Center
04:21AM 43.6508 -70.3711 92° East 158 182 800 -660 Descending Boston Center
04:22AM 43.6456 -70.3083 97° East 153 176 200 -660 Descending Boston Center
04:24AM 43.6456 -70.3086 101° East  Level Estimated
04:31AM 43.6456 -70.3086 101° East  Level Estimated
04:32AM 43.6456 -70.3086 101° East  Level Estimated
04:33AM 43.6456 -70.3086 101° East  Level Estimated
04:34AM 43.6456 -70.3086 101° East  Level Estimated